Alvarado, Texas
Current Conditions -  °F | °C
As of 1:50 PM on Wednesday 17 Dec 2014 (Local Time) from KFWS Reporting Station
Overcast Overcast  
Wind Chill: 44°   Ceiling: 2900
Heat Index: 48°   Visibility: 20mi
Dew Point: 37°   Wind: 9mph
Humidity: 66%   Direction: 110°ESE
Pressure: 30.12"   Gusts: NA
Location:  32.41°N, 97.21°W
Report Text: KFWS 171950Z 11008KT 20SM OVC029 09/03 A3012
Loading
Personal Weather Stations






























Interactive Weather Map New forecast layout! Learn more

10-Day Weather Forecast

Advertisements
Track Severe Weather on mobile